createdAt,value
2022-11-24T00:00:29.794Z,10.40
2022-11-24T00:01:20.066Z,14.38
2022-11-24T00:02:01.785Z,14.30
2022-11-24T00:02:43.667Z,12.52
2022-11-24T00:03:25.465Z,15.00
2022-11-24T00:04:07.430Z,13.98
2022-11-24T00:04:49.065Z,10.20
2022-11-24T00:05:30.729Z,11.60
2022-11-24T00:06:15.470Z,16.08
2022-11-24T00:06:57.239Z,10.80
2022-11-24T00:07:38.964Z,12.00
2022-11-24T00:08:20.650Z,9.48
2022-11-24T00:09:03.914Z,9.73
2022-11-24T00:09:45.593Z,12.40
2022-11-24T00:10:27.207Z,13.27
2022-11-24T00:11:15.819Z,12.48
2022-11-24T00:11:57.451Z,12.75
2022-11-24T00:12:39.089Z,11.75
2022-11-24T00:13:20.785Z,12.55
2022-11-24T00:14:03.865Z,15.60
2022-11-24T00:14:47.005Z,20.73
2022-11-24T00:15:28.685Z,16.17
2022-11-24T00:16:15.217Z,10.13
2022-11-24T00:16:57.083Z,9.30
2022-11-24T00:17:38.753Z,11.52
2022-11-24T00:18:20.427Z,14.48
2022-11-24T00:19:04.028Z,9.35
2022-11-24T00:19:45.749Z,14.23
2022-11-24T00:20:27.408Z,13.68
2022-11-24T00:21:09.713Z,11.57
2022-11-24T00:21:51.397Z,11.80
2022-11-24T00:22:33.028Z,9.75
2022-11-24T00:23:14.660Z,13.52
2022-11-24T00:23:56.707Z,13.88
2022-11-24T00:24:38.399Z,16.10
2022-11-24T00:25:20.024Z,12.45
2022-11-24T00:26:11.074Z,12.20
2022-11-24T00:26:52.709Z,17.40
2022-11-24T00:27:34.333Z,21.67
2022-11-24T00:28:16.016Z,18.23
2022-11-24T00:29:00.180Z,16.77
2022-11-24T00:29:41.826Z,12.27
2022-11-24T00:30:23.502Z,10.68
2022-11-24T00:31:17.483Z,10.65
2022-11-24T00:31:59.339Z,14.30
2022-11-24T00:32:40.977Z,13.25
2022-11-24T00:33:22.607Z,10.05
2022-11-24T00:34:14.607Z,8.82
2022-11-24T00:34:56.344Z,13.32
2022-11-24T00:35:37.977Z,11.38
2022-11-24T00:36:21.536Z,10.55
2022-11-24T00:37:03.229Z,9.30
2022-11-24T00:37:44.908Z,11.50
2022-11-24T00:38:27.103Z,12.55
2022-11-24T00:39:12.699Z,12.27
2022-11-24T00:39:54.318Z,13.75
2022-11-24T00:40:35.949Z,11.80
2022-11-24T00:41:17.562Z,11.18
2022-11-24T00:41:59.200Z,13.80
2022-11-24T00:42:40.808Z,10.60
2022-11-24T00:43:22.633Z,8.73
2022-11-24T00:44:04.601Z,12.68
2022-11-24T00:44:46.304Z,10.85
2022-11-24T00:45:27.924Z,12.55
2022-11-24T00:46:09.771Z,14.68
2022-11-24T00:46:51.660Z,13.50
2022-11-24T00:47:33.371Z,9.85
2022-11-24T00:48:15.137Z,11.60
2022-11-24T00:48:57.154Z,10.50
2022-11-24T00:49:38.821Z,10.75
2022-11-24T00:50:21.135Z,7.57
2022-11-24T00:51:07.746Z,15.73
2022-11-24T00:51:49.365Z,13.52
2022-11-24T00:52:30.977Z,12.82
2022-11-24T00:53:12.630Z,10.77
2022-11-24T00:53:55.425Z,11.38
2022-11-24T00:54:37.054Z,14.57
2022-11-24T00:55:18.670Z,7.97
2022-11-24T00:56:00.517Z,11.18
2022-11-24T00:56:42.133Z,15.38
2022-11-24T00:57:23.788Z,12.10
2022-11-24T00:58:05.421Z,8.85
2022-11-24T00:58:47.105Z,12.00
2022-11-24T00:59:28.798Z,15.60
2022-11-24T01:00:10.765Z,11.88
2022-11-24T01:00:53.248Z,11.80
2022-11-24T01:01:35.036Z,9.55
2022-11-24T01:02:16.784Z,14.82
2022-11-24T01:02:58.515Z,12.48
2022-11-24T01:03:42.395Z,11.80
2022-11-24T01:04:25.032Z,11.73
2022-11-24T01:05:07.050Z,12.38
2022-11-24T01:05:49.122Z,14.88
2022-11-24T01:06:32.449Z,17.80
2022-11-24T01:07:14.251Z,14.02
2022-11-24T01:07:55.935Z,10.02
2022-11-24T01:08:38.660Z,9.80
2022-11-24T01:09:20.726Z,11.45
2022-11-24T01:10:02.531Z,12.25
2022-11-24T01:10:44.237Z,13.32
2022-11-24T01:11:53.626Z,12.65
2022-11-24T01:12:35.631Z,16.67
2022-11-24T01:13:17.268Z,19.30
2022-11-24T01:13:59.465Z,15.63
2022-11-24T01:14:41.193Z,14.77
2022-11-24T01:15:23.196Z,11.88
2022-11-24T01:16:05.239Z,12.68
2022-11-24T01:16:49.233Z,13.63
2022-11-24T01:17:30.880Z,14.57
2022-11-24T01:18:13.160Z,14.00
2022-11-24T01:18:55.300Z,13.80
2022-11-24T01:19:36.921Z,18.55
2022-11-24T01:20:18.813Z,20.00
2022-11-24T01:21:08.636Z,15.13
2022-11-24T01:21:52.260Z,16.08
2022-11-24T01:22:34.896Z,15.00
2022-11-24T01:23:16.513Z,11.45
2022-11-24T01:23:58.189Z,15.13
2022-11-24T01:24:40.024Z,15.48
2022-11-24T01:25:21.677Z,11.00
2022-11-24T01:26:11.976Z,14.85
2022-11-24T01:26:53.612Z,11.98
2022-11-24T01:27:35.415Z,16.17
2022-11-24T01:28:17.181Z,14.70
2022-11-24T01:28:59.158Z,20.23
2022-11-24T01:29:40.770Z,15.63
2022-11-24T01:30:23.052Z,14.20
2022-11-24T01:31:07.284Z,15.38
2022-11-24T01:31:49.044Z,13.55
2022-11-24T01:32:33.118Z,14.73
2022-11-24T01:33:14.758Z,19.08
2022-11-24T01:33:56.408Z,13.50
2022-11-24T01:34:38.045Z,13.60
2022-11-24T01:35:19.703Z,13.50
2022-11-24T01:36:02.221Z,11.30
2022-11-24T01:36:43.918Z,11.55
2022-11-24T01:37:25.624Z,16.02
2022-11-24T01:38:07.246Z,14.18
2022-11-24T01:38:49.097Z,12.90
2022-11-24T01:39:30.737Z,16.00
2022-11-24T01:40:12.626Z,13.35
2022-11-24T01:41:06.040Z,13.10
2022-11-24T01:41:47.695Z,8.73
2022-11-24T01:42:42.606Z,10.30
2022-11-24T01:43:24.235Z,12.13
2022-11-24T01:44:29.391Z,8.20
2022-11-24T01:45:35.405Z,10.20
2022-11-24T01:46:58.149Z,12.98
2022-11-24T01:47:40.893Z,6.07
2022-11-24T01:48:30.152Z,10.30
2022-11-24T01:49:32.511Z,14.05
2022-11-24T01:50:16.648Z,7.97
2022-11-24T01:51:26.727Z,9.70
2022-11-24T01:52:17.400Z,9.93
2022-11-24T01:52:59.356Z,9.45
2022-11-24T01:53:44.314Z,10.85
2022-11-24T01:54:33.996Z,11.90
2022-11-24T01:55:22.710Z,10.18
2022-11-24T01:56:05.693Z,10.32
2022-11-24T01:56:51.179Z,9.20
2022-11-24T01:57:38.401Z,8.85
2022-11-24T01:58:24.315Z,8.00
2022-11-24T01:59:09.851Z,12.63
2022-11-24T01:59:57.396Z,12.15
2022-11-24T02:00:43.120Z,13.20
2022-11-24T02:01:25.623Z,11.50
2022-11-24T02:02:08.160Z,11.48
2022-11-24T02:02:50.145Z,10.57
2022-11-24T02:03:37.261Z,10.80
2022-11-24T02:04:23.831Z,10.95
2022-11-24T02:05:16.910Z,8.23
2022-11-24T02:06:06.715Z,10.82
2022-11-24T02:06:48.687Z,10.45
2022-11-24T02:07:31.041Z,9.63
2022-11-24T02:08:22.539Z,8.65
2022-11-24T02:09:40.372Z,8.48
2022-11-24T02:10:23.469Z,9.05
2022-11-24T02:11:06.071Z,13.57
2022-11-24T02:11:47.754Z,13.10
2022-11-24T02:12:29.425Z,8.77
2022-11-24T02:13:11.344Z,7.80
2022-11-24T02:13:54.935Z,9.23
2022-11-24T02:14:39.405Z,11.55
2022-11-24T02:15:21.220Z,8.55
2022-11-24T02:16:04.635Z,9.13
2022-11-24T02:16:49.756Z,8.98
2022-11-24T02:17:31.470Z,7.78
2022-11-24T02:18:13.169Z,12.68
2022-11-24T02:18:55.001Z,13.93
2022-11-24T02:19:40.657Z,8.30
2022-11-24T02:20:22.432Z,9.40
2022-11-24T02:21:05.134Z,7.63
2022-11-24T02:21:47.087Z,8.32
2022-11-24T02:22:34.881Z,6.28
2022-11-24T02:23:54.233Z,7.22
2022-11-24T02:24:49.692Z,8.10
2022-11-24T02:25:45.165Z,7.60
2022-11-24T02:26:47.099Z,7.00
2022-11-24T02:27:28.787Z,8.10
2022-11-24T02:28:15.202Z,10.40
2022-11-24T02:28:57.251Z,9.27
2022-11-24T02:29:39.969Z,11.55
2022-11-24T02:30:22.029Z,11.65
2022-11-24T02:31:05.518Z,7.68
2022-11-24T02:31:56.830Z,7.70
2022-11-24T02:32:41.439Z,8.43
2022-11-24T02:33:25.203Z,9.48
2022-11-24T02:34:06.858Z,11.80
2022-11-24T02:34:48.606Z,10.07
2022-11-24T02:35:30.361Z,11.32
2022-11-24T02:36:12.029Z,5.82
2022-11-24T02:36:53.653Z,6.10
2022-11-24T02:37:35.401Z,6.30
2022-11-24T02:38:17.059Z,8.40
2022-11-24T02:38:58.685Z,9.70
2022-11-24T02:39:40.316Z,7.22
2022-11-24T02:40:25.386Z,9.70
2022-11-24T02:41:11.518Z,8.75
2022-11-24T02:42:08.005Z,6.43
2022-11-24T02:42:49.665Z,7.20
2022-11-24T02:43:36.714Z,7.82
2022-11-24T02:44:22.050Z,8.50
2022-11-24T02:45:04.469Z,11.82
2022-11-24T02:45:46.299Z,7.35
2022-11-24T02:46:28.004Z,7.15
2022-11-24T02:47:12.305Z,9.77
2022-11-24T02:47:54.113Z,6.68
2022-11-24T02:48:35.731Z,6.68
2022-11-24T02:49:17.369Z,7.32
2022-11-24T02:49:59.017Z,11.68
2022-11-24T02:50:40.657Z,14.45
2022-11-24T02:51:22.953Z,8.25
2022-11-24T02:52:05.725Z,8.27
2022-11-24T02:52:47.392Z,6.88
2022-11-24T02:53:29.014Z,9.25
2022-11-24T02:54:10.701Z,9.10
2022-11-24T02:54:52.368Z,10.68
2022-11-24T02:55:34.197Z,7.25
2022-11-24T02:56:15.844Z,7.45
2022-11-24T02:56:57.776Z,9.90
2022-11-24T02:57:39.530Z,9.88
2022-11-24T02:58:21.548Z,9.48
2022-11-24T02:59:03.196Z,9.93
2022-11-24T02:59:44.868Z,7.10
2022-11-24T03:00:26.512Z,9.88
2022-11-24T03:01:08.654Z,12.10
2022-11-24T03:01:50.445Z,13.57
2022-11-24T03:02:32.224Z,11.13
2022-11-24T03:03:14.280Z,6.88
2022-11-24T03:03:55.972Z,8.25
2022-11-24T03:04:37.646Z,9.80
2022-11-24T03:05:19.467Z,8.93
2022-11-24T03:06:01.100Z,9.40
2022-11-24T03:06:43.397Z,7.45
2022-11-24T03:07:25.101Z,9.30
2022-11-24T03:08:06.962Z,7.82
2022-11-24T03:08:48.674Z,5.00
2022-11-24T03:09:30.881Z,6.13
2022-11-24T03:10:12.510Z,9.10
2022-11-24T03:10:54.677Z,11.25
2022-11-24T03:11:36.583Z,9.07
2022-11-24T03:12:18.235Z,8.32
2022-11-24T03:12:59.861Z,11.00
2022-11-24T03:13:41.533Z,8.35
2022-11-24T03:14:23.245Z,6.63
2022-11-24T03:15:05.997Z,8.80
2022-11-24T03:15:47.701Z,10.80
2022-11-24T03:16:29.369Z,10.35
2022-11-24T03:17:11.040Z,10.38
2022-11-24T03:17:55.892Z,13.82
2022-11-24T03:18:37.606Z,12.75
2022-11-24T03:19:19.233Z,10.85
2022-11-24T03:20:04.891Z,9.07
2022-11-24T03:20:46.964Z,15.63
2022-11-24T03:21:28.730Z,11.60
2022-11-24T03:22:12.987Z,13.10
2022-11-24T03:22:54.644Z,9.73
2022-11-24T03:23:36.333Z,10.95
2022-11-24T03:24:17.979Z,8.43
2022-11-24T03:24:59.667Z,13.75
2022-11-24T03:25:41.292Z,12.75
2022-11-24T03:26:24.650Z,12.65
2022-11-24T03:27:06.401Z,13.73
2022-11-24T03:27:48.222Z,18.55
2022-11-24T03:28:29.889Z,17.45
2022-11-24T03:29:11.533Z,17.42
2022-11-24T03:29:53.198Z,16.42
2022-11-24T03:30:34.838Z,12.20
2022-11-24T03:31:16.625Z,11.35
2022-11-24T03:31:59.574Z,12.70
2022-11-24T03:32:41.931Z,10.85
2022-11-24T03:33:23.561Z,19.13
2022-11-24T03:34:05.207Z,14.98
2022-11-24T03:34:47.265Z,15.45
2022-11-24T03:35:28.964Z,12.73
2022-11-24T03:36:10.685Z,15.60
2022-11-24T03:36:52.313Z,11.27
2022-11-24T03:37:34.271Z,9.93
2022-11-24T03:38:15.920Z,11.98
2022-11-24T03:38:57.577Z,12.02
2022-11-24T03:39:39.294Z,14.13
2022-11-24T03:40:20.961Z,13.77
2022-11-24T03:41:02.709Z,13.27
2022-11-24T03:41:44.364Z,12.68
2022-11-24T03:42:26.054Z,11.55
2022-11-24T03:43:07.918Z,13.00
2022-11-24T03:43:49.557Z,12.50
2022-11-24T03:44:31.435Z,16.83
2022-11-24T03:46:14.991Z,13.27
2022-11-24T03:46:56.701Z,12.40
2022-11-24T03:47:38.333Z,16.38
2022-11-24T03:48:23.238Z,17.33
2022-11-24T03:49:04.873Z,15.88
2022-11-24T03:49:46.519Z,18.42
2022-11-24T03:50:28.207Z,18.52
2022-11-24T03:51:10.543Z,15.68
2022-11-24T03:51:52.219Z,21.90
2022-11-24T03:52:33.855Z,15.82
2022-11-24T03:53:15.490Z,14.90
2022-11-24T03:53:57.135Z,14.90
2022-11-24T03:54:38.832Z,15.73
2022-11-24T03:55:20.513Z,15.73
2022-11-24T03:56:03.072Z,14.10
2022-11-24T03:56:44.813Z,15.57
2022-11-24T03:57:26.436Z,17.33
2022-11-24T03:58:08.057Z,13.65
2022-11-24T03:58:49.997Z,16.30
2022-11-24T03:59:31.691Z,14.20
2022-11-24T04:00:13.694Z,16.45
2022-11-24T04:00:56.126Z,15.45
2022-11-24T04:01:37.817Z,16.90
2022-11-24T04:02:19.591Z,14.13
2022-11-24T04:03:01.412Z,9.68
2022-11-24T04:03:43.067Z,11.35
2022-11-24T04:04:24.732Z,16.25
2022-11-24T04:05:07.228Z,12.55
2022-11-24T04:05:49.451Z,10.75
2022-11-24T04:06:31.115Z,8.27
2022-11-24T04:07:12.797Z,12.88
2022-11-24T04:07:57.610Z,13.02
2022-11-24T04:08:39.246Z,11.52
2022-11-24T04:09:20.966Z,9.77
2022-11-24T04:10:02.641Z,10.90
2022-11-24T04:10:44.419Z,13.18
2022-11-24T04:11:44.400Z,12.50
2022-11-24T04:12:44.285Z,12.85
2022-11-24T04:13:26.837Z,12.25
2022-11-24T04:14:13.403Z,12.35
2022-11-24T04:14:55.471Z,12.98
2022-11-24T04:15:40.343Z,11.48
2022-11-24T04:16:22.124Z,15.10
2022-11-24T04:17:04.212Z,17.98
2022-11-24T04:17:47.011Z,12.05
2022-11-24T04:18:28.865Z,13.63
2022-11-24T04:19:10.519Z,17.05
2022-11-24T04:19:52.153Z,15.38
2022-11-24T04:20:34.265Z,14.27
2022-11-24T04:21:15.923Z,11.50
2022-11-24T04:21:57.554Z,13.73
2022-11-24T04:22:39.872Z,13.77
2022-11-24T04:23:21.614Z,12.88
2022-11-24T04:24:03.466Z,15.13
2022-11-24T04:24:45.134Z,13.82
2022-11-24T04:25:27.227Z,15.95
2022-11-24T04:26:08.881Z,12.82
2022-11-24T04:26:50.535Z,17.90
2022-11-24T04:27:36.616Z,15.63
2022-11-24T04:28:18.246Z,15.45
2022-11-24T04:28:59.978Z,21.90
2022-11-24T04:29:41.691Z,17.40
2022-11-24T04:30:24.651Z,15.55
2022-11-24T04:31:06.544Z,13.40
2022-11-24T04:31:48.267Z,19.02
2022-11-24T04:32:29.947Z,17.75
2022-11-24T04:33:12.281Z,17.67
2022-11-24T04:33:53.942Z,18.35
2022-11-24T04:34:37.166Z,14.68
2022-11-24T04:35:19.396Z,14.45
2022-11-24T04:36:01.082Z,15.57
2022-11-24T04:36:42.751Z,16.10
2022-11-24T04:37:24.382Z,21.73
2022-11-24T04:38:06.026Z,17.30
2022-11-24T04:39:24.086Z,18.55
2022-11-24T04:39:49.428Z,20.75
2022-11-24T04:40:31.280Z,11.68
2022-11-24T04:41:12.908Z,11.95
2022-11-24T04:41:54.795Z,14.05
2022-11-24T04:42:36.967Z,15.30
2022-11-24T04:43:19.396Z,14.48
2022-11-24T04:44:01.116Z,14.32
2022-11-24T04:44:42.874Z,17.70
2022-11-24T04:45:24.782Z,16.95
2022-11-24T04:46:06.671Z,16.58
2022-11-24T04:46:48.507Z,12.98
2022-11-24T04:47:30.268Z,18.92
2022-11-24T04:48:11.892Z,17.08
2022-11-24T04:48:53.571Z,19.13
2022-11-24T04:49:35.276Z,16.05
2022-11-24T04:50:17.163Z,17.23
2022-11-24T04:50:58.836Z,15.10
2022-11-24T04:51:41.000Z,17.98
2022-11-24T04:52:25.079Z,15.68
2022-11-24T04:53:06.725Z,14.07
2022-11-24T04:53:49.392Z,15.73
2022-11-24T04:54:31.122Z,16.73
2022-11-24T04:55:13.225Z,16.92
2022-11-24T04:55:54.874Z,19.60
2022-11-24T04:56:36.561Z,18.70
2022-11-24T04:57:26.140Z,15.55
2022-11-24T04:58:10.375Z,14.93
2022-11-24T04:58:52.029Z,14.32
2022-11-24T04:59:33.696Z,16.30
2022-11-24T05:00:15.670Z,18.38
2022-11-24T05:00:57.310Z,15.45
2022-11-24T05:01:39.047Z,16.20
2022-11-24T05:02:21.564Z,16.35
2022-11-24T05:03:03.403Z,22.48
2022-11-24T05:03:45.111Z,20.02
2022-11-24T05:04:26.850Z,16.15
2022-11-24T05:05:08.867Z,14.13
2022-11-24T05:05:50.496Z,13.00
2022-11-24T05:06:33.138Z,16.67
2022-11-24T05:07:18.680Z,11.68
2022-11-24T05:08:01.073Z,10.43
2022-11-24T05:08:42.830Z,14.50
2022-11-24T05:09:36.907Z,19.75
2022-11-24T05:10:36.193Z,17.08
2022-11-24T05:11:18.526Z,18.15
2022-11-24T05:12:00.198Z,18.15
2022-11-24T05:12:44.702Z,14.05
2022-11-24T05:13:28.781Z,13.32
2022-11-24T05:14:10.525Z,17.08
2022-11-24T05:14:52.233Z,15.73
2022-11-24T05:15:34.093Z,19.20
2022-11-24T05:16:15.943Z,20.08
2022-11-24T05:16:57.756Z,15.82
2022-11-24T05:17:39.632Z,13.95
2022-11-24T05:18:22.241Z,16.45
2022-11-24T05:19:04.047Z,12.13
2022-11-24T05:19:45.736Z,16.40
2022-11-24T05:20:27.478Z,17.50
2022-11-24T05:21:09.315Z,19.35
2022-11-24T05:21:52.232Z,15.55
2022-11-24T05:22:34.121Z,14.80
2022-11-24T05:23:16.030Z,12.05
2022-11-24T05:23:57.881Z,10.57
2022-11-24T05:24:39.601Z,12.55
2022-11-24T05:25:21.463Z,16.02
2022-11-24T05:26:03.951Z,14.52
2022-11-24T05:26:45.662Z,13.05
2022-11-24T05:27:27.532Z,18.42
2022-11-24T05:28:12.461Z,17.20
2022-11-24T05:28:54.358Z,19.95
2022-11-24T05:29:36.052Z,22.33
2022-11-24T05:30:17.851Z,16.70
2022-11-24T05:31:03.216Z,15.75
2022-11-24T05:31:47.713Z,16.77
2022-11-24T05:32:29.574Z,18.83
2022-11-24T05:33:18.993Z,20.67
2022-11-24T05:34:00.760Z,14.95
2022-11-24T05:34:42.418Z,14.60
2022-11-24T05:35:24.388Z,19.42
2022-11-24T05:36:07.362Z,15.93
2022-11-24T05:36:54.854Z,17.70
2022-11-24T05:37:36.854Z,13.20
2022-11-24T05:38:19.011Z,16.05
2022-11-24T05:39:01.205Z,16.95
2022-11-24T05:39:42.863Z,18.63
2022-11-24T05:40:25.499Z,16.73
2022-11-24T05:41:07.194Z,16.70
2022-11-24T05:41:48.895Z,17.75
2022-11-24T05:42:47.117Z,12.13
2022-11-24T05:43:29.838Z,16.65
2022-11-24T05:44:11.615Z,21.15
2022-11-24T05:44:53.789Z,19.25
2022-11-24T05:45:35.714Z,22.83
2022-11-24T05:46:17.548Z,22.88
2022-11-24T05:46:59.242Z,16.70
2022-11-24T05:47:41.789Z,15.23
2022-11-24T05:48:23.493Z,13.60
2022-11-24T05:49:05.165Z,16.92
2022-11-24T05:49:47.115Z,13.40
2022-11-24T05:50:28.789Z,15.90
2022-11-24T05:51:10.538Z,17.85
2022-11-24T05:51:52.292Z,14.25
2022-11-24T05:52:34.109Z,15.77
2022-11-24T05:53:15.806Z,16.23
2022-11-24T05:53:57.478Z,16.30
2022-11-24T05:54:39.158Z,17.50
2022-11-24T05:55:20.939Z,15.70
2022-11-24T05:56:06.094Z,18.58
2022-11-24T05:56:47.764Z,16.05
2022-11-24T05:57:29.460Z,17.38
2022-11-24T05:58:11.174Z,20.50
2022-11-24T05:58:52.910Z,18.83
2022-11-24T05:59:34.657Z,16.15
2022-11-24T06:00:18.166Z,15.57
2022-11-24T06:00:59.827Z,17.52
2022-11-24T06:01:41.527Z,14.80
2022-11-24T06:02:23.433Z,15.70
2022-11-24T06:03:05.275Z,15.32
2022-11-24T06:03:47.050Z,22.40
2022-11-24T06:04:28.715Z,19.20
2022-11-24T06:05:10.412Z,13.23
2022-11-24T06:05:52.082Z,18.10
2022-11-24T06:06:33.762Z,19.17
2022-11-24T06:07:16.119Z,15.40
2022-11-24T06:07:59.859Z,14.63
2022-11-24T06:08:41.623Z,13.13
2022-11-24T06:09:23.339Z,15.20
2022-11-24T06:10:05.596Z,15.38
2022-11-24T06:10:47.301Z,16.25
2022-11-24T06:11:29.572Z,14.10
2022-11-24T06:12:12.586Z,16.88
2022-11-24T06:12:54.357Z,10.77
2022-11-24T06:13:36.189Z,13.05
2022-11-24T06:14:18.167Z,12.30
2022-11-24T06:14:59.984Z,12.48
2022-11-24T06:15:41.738Z,8.50
2022-11-24T06:16:23.675Z,7.63
2022-11-24T06:17:07.361Z,9.30
2022-11-24T06:17:55.848Z,9.73
2022-11-24T06:18:37.861Z,14.05
2022-11-24T06:19:19.547Z,13.93
2022-11-24T06:20:01.254Z,11.70
2022-11-24T06:20:53.167Z,9.88
2022-11-24T06:21:44.725Z,10.00
2022-11-24T06:22:26.465Z,10.63
2022-11-24T06:23:08.199Z,11.38
2022-11-24T06:23:50.037Z,10.27
2022-11-24T06:24:31.806Z,10.63
2022-11-24T06:25:13.838Z,10.93
2022-11-24T06:26:00.495Z,12.68
2022-11-24T06:26:42.405Z,10.45
2022-11-24T06:27:24.314Z,11.43
2022-11-24T06:28:06.769Z,12.30
2022-11-24T06:28:48.500Z,10.95
2022-11-24T06:29:30.200Z,7.60
2022-11-24T06:30:12.920Z,8.00
2022-11-24T06:30:54.817Z,11.82
2022-11-24T06:31:36.616Z,12.45
2022-11-24T06:32:18.724Z,11.38
2022-11-24T06:33:00.633Z,9.45
2022-11-24T06:33:42.426Z,10.38
2022-11-24T06:34:24.144Z,10.02
2022-11-24T06:35:06.467Z,10.95
2022-11-24T06:35:48.166Z,11.57
2022-11-24T06:36:29.838Z,10.50
2022-11-24T06:37:11.712Z,9.43
2022-11-24T06:37:53.343Z,11.05
2022-11-24T06:38:36.045Z,14.60
2022-11-24T06:39:17.877Z,14.50
2022-11-24T06:39:59.570Z,17.40
2022-11-24T06:40:41.241Z,12.00
2022-11-24T06:41:22.880Z,9.63
2022-11-24T06:42:04.688Z,10.48
2022-11-24T06:42:51.266Z,8.45
2022-11-24T06:43:34.289Z,8.77
2022-11-24T06:44:15.982Z,10.13
2022-11-24T06:44:57.643Z,11.98
2022-11-24T06:45:39.407Z,10.40
2022-11-24T06:46:21.342Z,8.48
2022-11-24T06:47:03.084Z,10.38
2022-11-24T06:47:44.738Z,9.90
2022-11-24T06:48:27.357Z,10.77
2022-11-24T06:49:09.105Z,13.18
2022-11-24T06:49:50.819Z,11.95
2022-11-24T06:50:33.814Z,8.40
2022-11-24T06:51:15.712Z,9.00
2022-11-24T06:51:57.438Z,8.82
2022-11-24T06:52:39.124Z,9.45
2022-11-24T06:53:20.844Z,7.18
2022-11-24T06:54:06.184Z,6.35
2022-11-24T06:54:47.866Z,10.48
2022-11-24T06:55:29.566Z,7.28
2022-11-24T06:56:16.695Z,7.88
2022-11-24T06:56:59.780Z,5.97
2022-11-24T06:57:41.561Z,5.30
2022-11-24T06:58:23.283Z,4.50
2022-11-24T06:59:05.068Z,6.43
2022-11-24T06:59:46.774Z,7.53
2022-11-24T07:00:29.383Z,8.68
2022-11-24T07:01:16.507Z,8.95
2022-11-24T07:01:58.305Z,6.90
2022-11-24T07:02:45.668Z,7.25
2022-11-24T07:03:28.177Z,5.90
2022-11-24T07:04:10.304Z,7.05
2022-11-24T07:04:52.020Z,10.65
2022-11-24T07:05:33.689Z,10.45
2022-11-24T07:06:19.552Z,7.63
2022-11-24T07:07:02.204Z,7.25
2022-11-24T07:07:44.334Z,6.97
2022-11-24T07:08:26.564Z,6.53
2022-11-24T07:09:09.910Z,7.45
2022-11-24T07:09:51.606Z,5.65
2022-11-24T07:10:33.772Z,5.68
2022-11-24T07:11:18.815Z,5.65
2022-11-24T07:12:02.200Z,10.70
2022-11-24T07:12:43.871Z,8.43
2022-11-24T07:13:25.503Z,9.50
2022-11-24T07:14:07.688Z,6.80
2022-11-24T07:14:49.342Z,12.15
2022-11-24T07:15:31.188Z,9.90
2022-11-24T07:16:24.399Z,5.85
2022-11-24T07:17:06.134Z,6.23
2022-11-24T07:17:47.782Z,6.78
2022-11-24T07:18:29.484Z,6.85
2022-11-24T07:19:11.158Z,4.78
2022-11-24T07:19:52.870Z,5.18
2022-11-24T07:20:34.517Z,4.50
2022-11-24T07:21:16.647Z,4.57
2022-11-24T07:21:58.345Z,5.65
2022-11-24T07:22:40.012Z,6.53
2022-11-24T07:23:21.701Z,4.60
2022-11-24T07:24:03.597Z,5.50
2022-11-24T07:24:45.259Z,8.30
2022-11-24T07:25:26.991Z,6.80
2022-11-24T07:26:09.637Z,5.93
2022-11-24T07:26:51.304Z,5.18
2022-11-24T07:27:33.750Z,3.80
2022-11-24T07:28:15.408Z,4.50
2022-11-24T07:28:57.135Z,4.15
2022-11-24T07:29:38.779Z,4.40
2022-11-24T07:30:20.471Z,4.45
2022-11-24T07:31:06.707Z,6.82
2022-11-24T07:31:48.453Z,7.10
2022-11-24T07:32:30.188Z,6.55
2022-11-24T07:33:11.830Z,4.20
2022-11-24T07:33:55.119Z,5.28
2022-11-24T07:34:37.155Z,5.30
2022-11-24T07:35:18.976Z,6.22
2022-11-24T07:36:01.015Z,4.78
2022-11-24T07:36:44.973Z,9.07
2022-11-24T07:37:31.270Z,7.65
2022-11-24T07:38:13.597Z,5.95
2022-11-24T07:38:55.284Z,4.35
2022-11-24T07:39:36.961Z,3.95
2022-11-24T07:40:18.653Z,4.40
2022-11-24T07:41:07.833Z,5.03
2022-11-24T07:41:49.527Z,4.45
2022-11-24T07:42:31.220Z,6.78
2022-11-24T07:43:17.205Z,6.05
2022-11-24T07:44:01.612Z,8.50
2022-11-24T07:44:43.276Z,7.43
2022-11-24T07:45:24.993Z,7.00
2022-11-24T07:46:10.222Z,5.32
2022-11-24T07:46:52.434Z,5.60
2022-11-24T07:47:38.191Z,4.50
2022-11-24T07:48:20.036Z,5.85
2022-11-24T07:49:01.838Z,6.00
2022-11-24T07:49:43.501Z,8.30
2022-11-24T07:50:25.207Z,7.82
2022-11-24T07:51:07.303Z,4.28
2022-11-24T07:51:49.577Z,7.30
2022-11-24T07:52:31.206Z,6.40
2022-11-24T07:53:12.853Z,5.03
2022-11-24T07:53:54.589Z,7.07
2022-11-24T07:54:36.562Z,7.72
2022-11-24T07:55:18.395Z,5.43
2022-11-24T07:56:02.500Z,4.13
2022-11-24T07:56:44.134Z,5.68
2022-11-24T07:57:25.794Z,7.03
2022-11-24T07:58:07.737Z,6.60
2022-11-24T07:58:52.806Z,7.50
2022-11-24T07:59:34.859Z,7.38
2022-11-24T08:00:17.075Z,6.20
2022-11-24T08:00:59.030Z,6.97
2022-11-24T08:01:41.012Z,5.60
2022-11-24T08:02:23.157Z,6.32
2022-11-24T08:03:04.851Z,4.32
2022-11-24T08:03:47.149Z,5.53
2022-11-24T08:04:28.830Z,5.10
2022-11-24T08:05:10.488Z,5.32
2022-11-24T08:06:22.261Z,6.10
2022-11-24T08:06:57.943Z,5.90
2022-11-24T08:07:39.725Z,6.70
2022-11-24T08:08:21.574Z,5.72
2022-11-24T08:09:03.390Z,6.35
2022-11-24T08:09:45.051Z,9.07
2022-11-24T08:10:26.856Z,7.50
2022-11-24T08:11:10.968Z,9.02
2022-11-24T08:11:52.611Z,8.38
2022-11-24T08:12:34.285Z,6.70
2022-11-24T08:13:16.064Z,6.85
2022-11-24T08:13:57.706Z,6.82
2022-11-24T08:14:39.372Z,6.70
2022-11-24T08:15:21.276Z,7.90
2022-11-24T08:16:12.397Z,7.28
2022-11-24T08:16:54.181Z,9.52
2022-11-24T08:17:36.020Z,9.73
2022-11-24T08:18:17.677Z,7.50
2022-11-24T08:18:59.421Z,6.22
2022-11-24T08:19:41.149Z,7.40
2022-11-24T08:20:22.785Z,8.82
2022-11-24T08:21:05.483Z,5.68
2022-11-24T08:21:47.141Z,5.63
2022-11-24T08:22:28.786Z,3.75
2022-11-24T08:23:10.424Z,4.70
2022-11-24T08:23:56.325Z,6.28
2022-11-24T08:24:38.352Z,6.10
2022-11-24T08:25:20.061Z,4.63
2022-11-24T08:26:11.743Z,4.95
2022-11-24T08:26:53.396Z,6.20
2022-11-24T08:27:35.060Z,9.25
2022-11-24T08:28:16.793Z,7.22
2022-11-24T08:28:59.743Z,7.05
2022-11-24T08:29:42.380Z,5.80
2022-11-24T08:30:24.183Z,6.68
2022-11-24T08:31:09.140Z,5.30
2022-11-24T08:31:50.878Z,6.70
2022-11-24T08:32:32.562Z,7.15
2022-11-24T08:33:14.290Z,9.02
2022-11-24T08:33:56.357Z,6.78
2022-11-24T08:34:38.690Z,6.63
2022-11-24T08:35:20.838Z,8.73
2022-11-24T08:36:07.120Z,10.27
2022-11-24T08:36:48.774Z,8.50
2022-11-24T08:37:30.425Z,9.93
2022-11-24T08:38:12.102Z,9.27
2022-11-24T08:38:58.421Z,9.80
2022-11-24T08:39:40.088Z,8.55
2022-11-24T08:40:21.789Z,7.82
2022-11-24T08:41:05.468Z,10.82
2022-11-24T08:41:47.504Z,12.93
2022-11-24T08:42:29.208Z,6.65
2022-11-24T08:43:10.887Z,5.57
2022-11-24T08:43:53.722Z,8.80
2022-11-24T08:44:35.683Z,13.95
2022-11-24T08:45:22.470Z,6.85
2022-11-24T08:46:07.116Z,8.02
2022-11-24T08:46:49.865Z,8.63
2022-11-24T08:47:31.579Z,7.18
2022-11-24T08:48:13.261Z,6.25
2022-11-24T08:48:55.537Z,6.65
2022-11-24T08:49:37.298Z,9.82
2022-11-24T08:50:18.968Z,9.40
2022-11-24T08:51:10.225Z,9.07
2022-11-24T08:51:51.895Z,9.63
2022-11-24T08:52:33.555Z,8.65
2022-11-24T08:53:15.414Z,10.73
2022-11-24T08:53:59.225Z,9.45
2022-11-24T08:54:40.907Z,7.65
2022-11-24T08:55:22.670Z,10.25
2022-11-24T08:56:05.762Z,8.00
2022-11-24T08:56:49.569Z,9.40
2022-11-24T08:57:31.226Z,10.27
2022-11-24T08:58:12.925Z,6.45
2022-11-24T08:58:55.893Z,8.15
2022-11-24T08:59:37.595Z,9.27
2022-11-24T09:00:22.535Z,11.25
2022-11-24T09:01:09.268Z,13.40
2022-11-24T09:01:51.221Z,6.80
2022-11-24T09:02:32.982Z,6.55
2022-11-24T09:03:14.738Z,8.65
2022-11-24T09:03:56.533Z,11.50
2022-11-24T09:04:38.584Z,8.55
2022-11-24T09:05:50.003Z,9.45
2022-11-24T09:06:25.687Z,12.82
2022-11-24T09:07:07.401Z,6.85
2022-11-24T09:07:49.208Z,12.60
2022-11-24T09:08:31.441Z,10.48
2022-11-24T09:09:13.247Z,9.05
2022-11-24T09:09:54.903Z,12.15
2022-11-24T09:10:38.646Z,14.18
2022-11-24T09:11:20.447Z,8.15
2022-11-24T09:12:02.106Z,7.72
2022-11-24T09:12:47.656Z,9.80
2022-11-24T09:13:29.362Z,11.10
2022-11-24T09:14:11.107Z,9.05
2022-11-24T09:14:52.790Z,12.25
2022-11-24T09:15:35.677Z,12.95
2022-11-24T09:16:22.936Z,11.20
2022-11-24T09:17:04.802Z,8.10
2022-11-24T09:17:46.724Z,8.80
2022-11-24T09:18:30.591Z,11.40
2022-11-24T09:19:12.562Z,6.55
2022-11-24T09:19:54.253Z,8.87
2022-11-24T09:20:35.996Z,8.82
2022-11-24T09:21:21.033Z,8.85
2022-11-24T09:22:02.687Z,9.77
2022-11-24T09:22:44.464Z,7.85
2022-11-24T09:23:26.973Z,8.07
2022-11-24T09:24:10.215Z,8.60